Time;durP1;ratioP1;P1;durP2;ratioP2;P2;SDS_P1;SDS_P2;PMS_P1;PMS_P2;Temp;Humidity;BMP_temperature;BMP_pressure;BME280_temperature;BME280_humidity;BME280_pressure;Samples;Min_cycle;Max_cycle;Signal;HPM_P1;HPM_P2
2022/07/09 00:00:12;;;;;;;33.78;15.23;;;;;;;;;;4983767;28;20058;-78
2022/07/09 00:02:38;;;;;;;29.27;16.55;;;;;;;;;;4992714;28;20037;-78
2022/07/09 00:05:03;;;;;;;31.67;17.17;;;;;;;;;;4983122;28;20034;-77
2022/07/09 00:07:29;;;;;;;29.85;16.92;;;;;;;;;;4983795;28;20105;-77
2022/07/09 00:09:54;;;;;;;35.08;18.27;;;;;;;;;;4999914;28;20040;-78
2022/07/09 00:12:19;;;;;;;32.75;16.67;;;;;;;;;;4999376;28;20508;-77
2022/07/09 00:14:45;;;;;;;21.92;16.15;;;;;;;;;;4984631;28;20113;-77
2022/07/09 00:17:10;;;;;;;29.90;16.17;;;;;;;;;;4991717;28;20497;-77
2022/07/09 00:19:36;;;;;;;39.80;18.45;;;;;;;;;;5001664;28;20120;-77
2022/07/09 00:22:02;;;;;;;23.90;15.40;;;;;;;;;;4982626;28;20042;-77
2022/07/09 00:24:27;;;;;;;37.15;20.13;;;;;;;;;;4976512;28;20044;-78
2022/07/09 00:26:52;;;;;;;36.00;19.77;;;;;;;;;;5000185;28;20030;-77
2022/07/09 00:29:18;;;;;;;36.95;19.17;;;;;;;;;;4984551;28;20056;-79
2022/07/09 00:31:45;;;;;;;36.17;18.33;;;;;;;;;;4999191;28;20056;-77
2022/07/09 00:34:11;;;;;;;39.58;19.83;;;;;;;;;;5001169;28;20071;-77
2022/07/09 00:36:36;;;;;;;40.42;21.63;;;;;;;;;;4983145;28;20341;-77
2022/07/09 00:39:02;;;;;;;35.40;19.73;;;;;;;;;;4984846;28;20311;-78
2022/07/09 00:41:27;;;;;;;39.25;21.33;;;;;;;;;;4993338;28;20029;-77
2022/07/09 00:43:53;;;;;;;38.33;19.75;;;;;;;;;;4995333;28;20052;-77
2022/07/09 00:46:18;;;;;;;31.50;19.92;;;;;;;;;;5000618;28;20030;-77
2022/07/09 00:48:44;;;;;;;40.03;20.45;;;;;;;;;;4996684;28;20047;-78
2022/07/09 00:51:09;;;;;;;35.75;20.58;;;;;;;;;;5000469;28;20085;-77
2022/07/09 00:53:34;;;;;;;39.17;21.88;;;;;;;;;;4984002;28;20061;-77
2022/07/09 00:56:00;;;;;;;44.97;22.83;;;;;;;;;;4993641;28;20095;-77
2022/07/09 00:58:26;;;;;;;45.25;22.52;;;;;;;;;;5000317;28;20037;-77
2022/07/09 01:00:52;;;;;;;54.00;23.92;;;;;;;;;;4983045;28;20115;-78
2022/07/09 01:03:18;;;;;;;53.03;26.48;;;;;;;;;;4959415;28;20038;-77
2022/07/09 01:05:44;;;;;;;63.42;27.52;;;;;;;;;;4999267;28;20034;-77
2022/07/09 01:08:09;;;;;;;53.85;26.38;;;;;;;;;;5016855;28;20160;-77
2022/07/09 01:10:35;;;;;;;60.55;26.88;;;;;;;;;;4984090;28;20038;-77
2022/07/09 01:13:02;;;;;;;58.13;27.15;;;;;;;;;;4982354;28;20952;-77
2022/07/09 01:15:27;;;;;;;53.63;24.42;;;;;;;;;;4983160;28;20030;-77
2022/07/09 01:17:52;;;;;;;62.55;26.48;;;;;;;;;;4958740;28;20040;-78
2022/07/09 01:20:21;;;;;;;41.42;21.92;;;;;;;;;;4982581;28;20034;-77
2022/07/09 01:22:47;;;;;;;47.08;23.48;;;;;;;;;;4999725;28;20030;-77
2022/07/09 01:25:12;;;;;;;48.15;24.23;;;;;;;;;;4983939;28;20430;-77
2022/07/09 01:27:37;;;;;;;52.20;27.20;;;;;;;;;;4982996;28;20564;-77
2022/07/09 01:30:04;;;;;;;58.40;26.13;;;;;;;;;;4982441;28;20041;-77
2022/07/09 01:32:29;;;;;;;52.25;25.63;;;;;;;;;;5000093;28;20031;-78
2022/07/09 01:34:55;;;;;;;48.55;24.95;;;;;;;;;;4982873;28;20129;-76
2022/07/09 01:37:20;;;;;;;55.53;26.45;;;;;;;;;;5000916;28;20026;-78
2022/07/09 01:39:51;;;;;;;49.92;24.35;;;;;;;;;;4997103;28;20034;-77
2022/07/09 01:42:18;;;;;;;42.10;23.92;;;;;;;;;;4999814;28;20795;-77
2022/07/09 01:44:45;;;;;;;43.60;24.55;;;;;;;;;;4982433;28;20046;-77
2022/07/09 01:47:11;;;;;;;42.30;22.52;;;;;;;;;;4999614;28;20037;-77
2022/07/09 01:49:36;;;;;;;39.33;21.92;;;;;;;;;;5000856;28;20117;-78
2022/07/09 01:52:01;;;;;;;43.17;23.75;;;;;;;;;;4985839;28;20639;-77
2022/07/09 01:54:27;;;;;;;39.40;21.45;;;;;;;;;;5002941;28;20038;-77
2022/07/09 01:56:55;;;;;;;44.33;21.77;;;;;;;;;;5004211;28;20038;-78
2022/07/09 01:59:20;;;;;;;47.72;23.10;;;;;;;;;;5001005;28;20432;-77
2022/07/09 02:01:46;;;;;;;40.88;21.45;;;;;;;;;;5004305;28;20113;-77
2022/07/09 02:04:11;;;;;;;42.35;23.15;;;;;;;;;;4987241;28;20049;-76
2022/07/09 02:06:37;;;;;;;42.45;21.55;;;;;;;;;;5019708;28;20117;-78
2022/07/09 02:09:03;;;;;;;44.55;23.65;;;;;;;;;;5001526;28;20054;-76
2022/07/09 02:11:28;;;;;;;45.97;24.67;;;;;;;;;;4986013;28;20053;-77
2022/07/09 02:13:53;;;;;;;40.72;21.10;;;;;;;;;;4986498;28;20049;-76
2022/07/09 02:16:19;;;;;;;40.58;21.85;;;;;;;;;;5003227;28;20117;-76
2022/07/09 02:18:44;;;;;;;40.05;21.52;;;;;;;;;;4968453;28;20084;-77
2022/07/09 02:21:10;;;;;;;41.60;23.00;;;;;;;;;;5001498;28;20118;-76
2022/07/09 02:23:35;;;;;;;41.00;22.88;;;;;;;;;;5002475;28;20176;-77
2022/07/09 02:26:00;;;;;;;39.70;22.58;;;;;;;;;;4985699;28;21252;-76
2022/07/09 02:28:26;;;;;;;40.47;22.05;;;;;;;;;;5001605;28;20105;-77
2022/07/09 02:30:51;;;;;;;35.80;20.92;;;;;;;;;;5001023;28;20088;-77
2022/07/09 02:33:16;;;;;;;39.15;20.35;;;;;;;;;;4994922;28;20538;-77
2022/07/09 02:35:42;;;;;;;41.92;21.23;;;;;;;;;;5002614;28;20053;-77
2022/07/09 02:38:08;;;;;;;37.88;20.83;;;;;;;;;;5000561;28;20113;-76
2022/07/09 02:40:33;;;;;;;41.05;19.85;;;;;;;;;;5002778;28;20228;-76
2022/07/09 02:42:59;;;;;;;38.08;18.52;;;;;;;;;;5001063;28;20541;-76
2022/07/09 02:45:24;;;;;;;37.70;19.60;;;;;;;;;;5018143;28;20098;-77
2022/07/09 02:47:50;;;;;;;40.90;19.45;;;;;;;;;;4986048;28;20083;-76
2022/07/09 02:50:15;;;;;;;41.03;18.58;;;;;;;;;;5004041;28;20064;-76
2022/07/09 02:52:40;;;;;;;41.55;18.30;;;;;;;;;;5004847;28;20089;-76
2022/07/09 02:55:06;;;;;;;38.90;18.63;;;;;;;;;;4986750;28;20048;-76
2022/07/09 02:57:31;;;;;;;41.45;20.13;;;;;;;;;;5018570;28;20034;-75
2022/07/09 02:59:57;;;;;;;37.17;19.60;;;;;;;;;;5002328;28;20026;-76
2022/07/09 03:02:23;;;;;;;36.70;18.65;;;;;;;;;;5018229;28;20099;-76
2022/07/09 03:04:49;;;;;;;40.72;19.08;;;;;;;;;;4992304;28;20124;-76
2022/07/09 03:07:14;;;;;;;50.58;19.55;;;;;;;;;;4993948;28;20041;-76
2022/07/09 03:09:40;;;;;;;44.70;18.50;;;;;;;;;;5002492;28;20046;-76
2022/07/09 03:12:06;;;;;;;40.83;18.73;;;;;;;;;;4978574;28;20033;-77
2022/07/09 03:14:31;;;;;;;34.65;17.95;;;;;;;;;;4997820;28;20095;-77
2022/07/09 03:16:57;;;;;;;36.25;17.60;;;;;;;;;;4986048;28;20030;-77
2022/07/09 03:19:22;;;;;;;34.10;17.15;;;;;;;;;;5001488;28;20562;-76
2022/07/09 03:21:48;;;;;;;36.55;17.40;;;;;;;;;;5002355;28;20036;-76
2022/07/09 03:24:13;;;;;;;35.45;17.73;;;;;;;;;;5001362;28;20133;-77
2022/07/09 03:26:38;;;;;;;32.97;16.02;;;;;;;;;;4983676;28;20032;-78
2022/07/09 03:29:04;;;;;;;31.25;15.13;;;;;;;;;;5019855;28;20470;-76
2022/07/09 03:31:29;;;;;;;30.60;15.85;;;;;;;;;;5002737;28;20030;-77
2022/07/09 03:33:55;;;;;;;30.90;15.98;;;;;;;;;;4985862;28;20080;-76
2022/07/09 03:36:20;;;;;;;35.25;16.60;;;;;;;;;;4999741;28;20465;-76
2022/07/09 03:38:45;;;;;;;27.65;15.70;;;;;;;;;;4962354;28;20030;-76
2022/07/09 03:41:11;;;;;;;28.08;15.13;;;;;;;;;;5000927;28;20427;-77
2022/07/09 03:43:36;;;;;;;30.77;16.20;;;;;;;;;;4969056;28;20077;-77
2022/07/09 03:46:02;;;;;;;30.05;15.23;;;;;;;;;;5001079;28;20061;-76
2022/07/09 03:48:27;;;;;;;29.92;15.15;;;;;;;;;;4997232;28;20022;-77
2022/07/09 03:50:52;;;;;;;30.73;16.10;;;;;;;;;;4984720;28;20113;-77
2022/07/09 03:53:19;;;;;;;32.53;16.25;;;;;;;;;;4982619;28;20022;-77
2022/07/09 03:55:44;;;;;;;28.45;15.90;;;;;;;;;;4995471;28;20448;-77
2022/07/09 03:58:10;;;;;;;24.48;15.43;;;;;;;;;;5001148;28;20056;-77
2022/07/09 04:00:35;;;;;;;32.85;16.20;;;;;;;;;;4999517;28;20113;-76
2022/07/09 04:03:01;;;;;;;36.38;18.02;;;;;;;;;;4985055;28;20130;-76
2022/07/09 04:05:26;;;;;;;34.70;16.60;;;;;;;;;;5000539;28;20036;-76
2022/07/09 04:07:51;;;;;;;33.40;16.13;;;;;;;;;;5017109;28;20631;-77
2022/07/09 04:10:17;;;;;;;31.80;16.35;;;;;;;;;;4999784;28;20037;-76
2022/07/09 04:12:42;;;;;;;29.52;15.55;;;;;;;;;;5000601;28;20057;-77
2022/07/09 04:15:08;;;;;;;27.75;16.65;;;;;;;;;;4981468;28;20076;-76
2022/07/09 04:17:34;;;;;;;29.30;15.85;;;;;;;;;;4983715;28;20030;-76
2022/07/09 04:20:00;;;;;;;27.65;16.45;;;;;;;;;;4999827;28;20510;-76
2022/07/09 04:22:26;;;;;;;29.85;15.50;;;;;;;;;;4984081;28;20034;-76
2022/07/09 04:24:51;;;;;;;25.88;15.15;;;;;;;;;;4975181;28;20038;-77
2022/07/09 04:27:16;;;;;;;24.08;13.85;;;;;;;;;;4967987;28;21835;-77
2022/07/09 04:29:42;;;;;;;23.67;15.00;;;;;;;;;;4997548;28;20030;-77
2022/07/09 04:32:07;;;;;;;25.25;15.00;;;;;;;;;;4998527;28;20454;-78
2022/07/09 04:34:33;;;;;;;22.77;13.63;;;;;;;;;;4983536;28;20116;-76
2022/07/09 04:36:58;;;;;;;24.35;15.15;;;;;;;;;;4981931;28;20402;-77
2022/07/09 04:39:24;;;;;;;24.10;13.95;;;;;;;;;;4999561;28;20038;-77
2022/07/09 04:41:50;;;;;;;29.15;15.30;;;;;;;;;;4989155;28;20117;-78
2022/07/09 04:44:15;;;;;;;29.27;15.60;;;;;;;;;;4985100;28;20042;-76
2022/07/09 04:46:42;;;;;;;26.27;14.27;;;;;;;;;;4999481;28;20049;-76
2022/07/09 04:49:08;;;;;;;28.27;14.80;;;;;;;;;;4985078;28;20022;-76
2022/07/09 04:51:33;;;;;;;24.67;14.55;;;;;;;;;;4998937;28;20055;-78
2022/07/09 04:53:59;;;;;;;27.77;13.90;;;;;;;;;;4999815;28;20050;-76
2022/07/09 04:56:24;;;;;;;25.20;14.05;;;;;;;;;;4999513;28;20038;-77
2022/07/09 04:58:53;;;;;;;24.02;13.15;;;;;;;;;;4980851;28;20564;-77
2022/07/09 05:01:19;;;;;;;26.33;13.40;;;;;;;;;;4981709;28;20246;-77
2022/07/09 05:03:46;;;;;;;19.85;12.80;;;;;;;;;;4998448;28;20096;-77
2022/07/09 05:06:15;;;;;;;19.98;13.25;;;;;;;;;;5013977;28;20066;-77
2022/07/09 05:08:40;;;;;;;19.65;11.45;;;;;;;;;;4999490;28;20161;-76
2022/07/09 05:11:06;;;;;;;18.50;11.40;;;;;;;;;;4997595;28;20116;-76
2022/07/09 05:13:32;;;;;;;18.92;11.63;;;;;;;;;;4999655;28;20109;-78
2022/07/09 05:15:57;;;;;;;17.65;10.90;;;;;;;;;;4995530;28;20034;-77
2022/07/09 05:18:22;;;;;;;14.20;10.18;;;;;;;;;;4998955;28;20624;-78
2022/07/09 05:20:48;;;;;;;18.80;11.52;;;;;;;;;;4964270;28;20061;-78
2022/07/09 05:23:13;;;;;;;18.65;11.10;;;;;;;;;;4999556;28;20109;-77
2022/07/09 05:25:38;;;;;;;17.30;10.65;;;;;;;;;;4974258;28;20529;-77
2022/07/09 05:28:04;;;;;;;14.35;9.80;;;;;;;;;;4998684;28;20038;-77
2022/07/09 05:30:29;;;;;;;14.02;10.25;;;;;;;;;;4982578;28;20531;-77
2022/07/09 05:32:55;;;;;;;20.92;9.98;;;;;;;;;;4991708;28;20109;-77
2022/07/09 05:35:20;;;;;;;17.17;10.88;;;;;;;;;;4999568;28;20474;-77
2022/07/09 05:37:45;;;;;;;17.38;10.93;;;;;;;;;;4998545;28;20041;-77
2022/07/09 05:40:11;;;;;;;13.57;10.00;;;;;;;;;;4983456;28;20126;-78
2022/07/09 05:42:37;;;;;;;15.45;9.95;;;;;;;;;;4966808;28;20562;-78
2022/07/09 05:45:03;;;;;;;15.10;9.88;;;;;;;;;;4982961;28;20052;-78
2022/07/09 05:47:29;;;;;;;18.30;10.90;;;;;;;;;;4965025;28;20041;-76
2022/07/09 05:49:54;;;;;;;13.68;9.93;;;;;;;;;;4999493;28;20482;-78
2022/07/09 05:52:19;;;;;;;13.43;8.90;;;;;;;;;;4998783;28;20038;-77
2022/07/09 05:54:45;;;;;;;13.90;9.82;;;;;;;;;;4982735;28;20061;-77
2022/07/09 05:57:10;;;;;;;16.15;10.02;;;;;;;;;;5015110;28;20025;-77
2022/07/09 05:59:36;;;;;;;11.88;9.95;;;;;;;;;;5000991;28;20045;-77
2022/07/09 06:02:05;;;;;;;15.18;9.40;;;;;;;;;;4980425;28;20463;-77
2022/07/09 06:04:33;;;;;;;14.85;10.18;;;;;;;;;;5015951;28;20065;-78
2022/07/09 06:06:59;;;;;;;13.05;9.98;;;;;;;;;;4971524;28;20030;-75
2022/07/09 06:09:24;;;;;;;15.48;9.50;;;;;;;;;;4982410;28;20030;-77
2022/07/09 06:11:49;;;;;;;14.68;8.90;;;;;;;;;;4980706;28;20105;-77
2022/07/09 06:14:19;;;;;;;14.18;9.23;;;;;;;;;;4981343;28;20483;-77
2022/07/09 06:16:46;;;;;;;13.20;8.50;;;;;;;;;;4983091;28;20037;-77
2022/07/09 06:19:12;;;;;;;13.60;8.38;;;;;;;;;;5000831;28;20486;-77
2022/07/09 06:21:38;;;;;;;21.98;8.98;;;;;;;;;;5017079;28;20034;-76
2022/07/09 06:24:03;;;;;;;13.48;8.18;;;;;;;;;;5013437;28;20049;-77
2022/07/09 06:26:30;;;;;;;14.85;9.13;;;;;;;;;;4998465;28;20084;-78
2022/07/09 06:28:55;;;;;;;12.30;8.90;;;;;;;;;;5000715;28;20413;-76
2022/07/09 06:31:21;;;;;;;12.68;7.65;;;;;;;;;;4992765;28;20034;-76
2022/07/09 06:33:46;;;;;;;14.43;8.57;;;;;;;;;;5010293;28;20109;-78
2022/07/09 06:36:11;;;;;;;10.98;7.75;;;;;;;;;;5016439;28;20571;-77
2022/07/09 06:39:44;;;;;;;16.33;8.45;;;;;;;;;;5020173;28;20069;-78
2022/07/09 06:41:22;;;;;;;17.75;7.95;;;;;;;;;;5006062;28;20029;-76
2022/07/09 06:43:50;;;;;;;12.77;7.05;;;;;;;;;;4989833;28;20041;-75
2022/07/09 06:46:15;;;;;;;13.27;6.53;;;;;;;;;;4983103;28;20045;-76
2022/07/09 06:48:41;;;;;;;8.02;6.13;;;;;;;;;;4986271;28;20125;-77
2022/07/09 06:51:06;;;;;;;8.30;6.03;;;;;;;;;;5019563;28;20033;-76
2022/07/09 06:53:31;;;;;;;8.23;5.47;;;;;;;;;;4996772;28;20121;-77
2022/07/09 06:55:57;;;;;;;10.70;6.05;;;;;;;;;;4999112;28;20057;-77
2022/07/09 06:58:22;;;;;;;10.25;5.07;;;;;;;;;;5001613;28;20113;-76
2022/07/09 07:00:47;;;;;;;9.23;5.63;;;;;;;;;;5001592;28;20105;-78
2022/07/09 07:03:13;;;;;;;6.88;5.10;;;;;;;;;;5003533;28;20506;-77
2022/07/09 07:05:38;;;;;;;8.50;5.50;;;;;;;;;;5005739;28;20143;-76
2022/07/09 07:08:04;;;;;;;9.43;5.80;;;;;;;;;;5004066;28;20058;-76
2022/07/09 07:10:29;;;;;;;10.55;5.93;;;;;;;;;;4988550;28;20034;-78
2022/07/09 07:12:55;;;;;;;10.82;5.30;;;;;;;;;;4988478;28;20034;-77
2022/07/09 07:15:21;;;;;;;7.82;4.85;;;;;;;;;;5020863;28;20490;-78
2022/07/09 07:17:48;;;;;;;7.00;4.65;;;;;;;;;;5019832;28;20036;-77
2022/07/09 07:20:13;;;;;;;10.65;4.32;;;;;;;;;;5005053;28;20505;-77
2022/07/09 07:22:39;;;;;;;13.55;4.60;;;;;;;;;;4996251;28;20026;-77
2022/07/09 07:25:04;;;;;;;10.23;4.78;;;;;;;;;;4998746;28;20486;-77
2022/07/09 07:27:30;;;;;;;8.50;4.28;;;;;;;;;;4961749;28;20034;-76
2022/07/09 07:29:55;;;;;;;9.88;4.60;;;;;;;;;;5003754;28;20022;-77
2022/07/09 07:32:20;;;;;;;7.15;4.32;;;;;;;;;;5004339;28;20057;-77
2022/07/09 07:34:46;;;;;;;7.18;3.63;;;;;;;;;;5004565;28;20462;-78
2022/07/09 07:37:11;;;;;;;8.35;4.20;;;;;;;;;;5012223;28;20070;-77
2022/07/09 07:39:36;;;;;;;10.43;3.65;;;;;;;;;;4984106;28;20026;-78
2022/07/09 07:42:02;;;;;;;7.07;4.22;;;;;;;;;;4997195;28;20487;-77
2022/07/09 07:44:28;;;;;;;7.35;3.45;;;;;;;;;;5003697;28;20058;-77
2022/07/09 07:46:54;;;;;;;7.22;3.60;;;;;;;;;;4987868;28;20038;-77
2022/07/09 07:49:19;;;;;;;6.35;3.63;;;;;;;;;;5004128;28;20045;-77
2022/07/09 07:51:45;;;;;;;5.32;3.33;;;;;;;;;;5001566;28;20034;-78
2022/07/09 07:54:10;;;;;;;7.90;3.90;;;;;;;;;;4995348;28;20040;-77
2022/07/09 07:56:36;;;;;;;6.70;3.85;;;;;;;;;;4996646;28;20470;-77
2022/07/09 07:59:02;;;;;;;7.53;3.70;;;;;;;;;;5017267;28;20053;-77
2022/07/09 08:01:28;;;;;;;8.98;4.55;;;;;;;;;;4982679;28;20053;-78
2022/07/09 08:03:53;;;;;;;7.85;4.13;;;;;;;;;;5019205;28;20097;-77
2022/07/09 08:06:18;;;;;;;7.43;4.07;;;;;;;;;;5002820;28;20109;-78
2022/07/09 08:08:44;;;;;;;6.85;3.60;;;;;;;;;;5000979;28;20045;-77
2022/07/09 08:11:09;;;;;;;6.10;3.58;;;;;;;;;;5016576;28;20053;-76
2022/07/09 08:13:34;;;;;;;9.50;3.92;;;;;;;;;;4983491;28;20124;-77
2022/07/09 08:16:01;;;;;;;9.05;3.53;;;;;;;;;;4984672;28;20118;-78
2022/07/09 08:18:27;;;;;;;5.93;3.53;;;;;;;;;;4999812;28;20092;-77
2022/07/09 08:20:52;;;;;;;5.53;3.63;;;;;;;;;;4985985;28;20041;-77
2022/07/09 08:23:17;;;;;;;4.97;3.00;;;;;;;;;;4983595;28;20065;-78
2022/07/09 08:25:43;;;;;;;6.10;2.88;;;;;;;;;;4999870;28;20037;-78
2022/07/09 08:28:08;;;;;;;5.45;3.35;;;;;;;;;;4998779;28;20502;-78
2022/07/09 08:30:34;;;;;;;7.53;2.85;;;;;;;;;;4982189;28;20113;-76
2022/07/09 08:32:59;;;;;;;7.50;3.05;;;;;;;;;;5014343;28;20034;-77
2022/07/09 08:35:25;;;;;;;5.63;2.60;;;;;;;;;;4983311;28;20513;-76
2022/07/09 08:37:51;;;;;;;4.20;2.60;;;;;;;;;;4982684;28;20613;-77
2022/07/09 08:40:17;;;;;;;4.40;2.50;;;;;;;;;;4983456;28;20046;-77
2022/07/09 08:42:43;;;;;;;6.15;3.08;;;;;;;;;;5013258;28;20500;-77
2022/07/09 08:45:11;;;;;;;5.00;2.55;;;;;;;;;;4998247;28;20053;-77
2022/07/09 08:47:36;;;;;;;4.72;2.55;;;;;;;;;;4998527;28;20040;-76
2022/07/09 08:50:02;;;;;;;4.63;2.50;;;;;;;;;;4988680;28;20038;-77
2022/07/09 08:52:27;;;;;;;3.67;2.20;;;;;;;;;;5000256;28;20034;-77
2022/07/09 08:54:53;;;;;;;5.88;2.50;;;;;;;;;;4982667;28;20101;-78
2022/07/09 08:57:19;;;;;;;6.72;2.72;;;;;;;;;;4980268;28;20026;-77
2022/07/09 08:59:44;;;;;;;5.03;2.50;;;;;;;;;;4983151;28;20040;-78
2022/07/09 09:02:13;;;;;;;7.03;2.40;;;;;;;;;;4993265;28;20076;-72
2022/07/09 09:04:39;;;;;;;3.92;2.33;;;;;;;;;;5009951;28;20417;-73
2022/07/09 09:07:18;;;;;;;4.35;2.50;;;;;;;;;;4998790;28;20033;-72
2022/07/09 09:09:43;;;;;;;3.47;2.22;;;;;;;;;;5003419;28;20475;-73
2022/07/09 09:12:10;;;;;;;5.38;2.58;;;;;;;;;;5014311;28;20030;-72
2022/07/09 09:14:35;;;;;;;5.90;2.28;;;;;;;;;;5000068;28;20061;-73
2022/07/09 09:17:09;;;;;;;7.70;2.58;;;;;;;;;;4965288;28;21459;-73
2022/07/09 09:19:35;;;;;;;4.65;2.08;;;;;;;;;;5012768;28;20030;-72
2022/07/09 09:22:00;;;;;;;5.25;1.98;;;;;;;;;;4999374;28;22745;-72
2022/07/09 09:24:26;;;;;;;4.65;1.60;;;;;;;;;;4996970;28;20137;-72
2022/07/09 09:26:51;;;;;;;3.28;1.75;;;;;;;;;;4998274;28;20033;-72
2022/07/09 09:29:17;;;;;;;3.65;1.40;;;;;;;;;;4988653;28;20026;-72
2022/07/09 09:31:44;;;;;;;8.18;1.80;;;;;;;;;;4965972;28;20034;-72
2022/07/09 09:34:10;;;;;;;5.32;2.00;;;;;;;;;;4983888;28;20475;-73
2022/07/09 09:36:52;;;;;;;7.35;2.13;;;;;;;;;;5013400;28;20075;-74
2022/07/09 09:39:22;;;;;;;4.45;1.45;;;;;;;;;;4993007;28;20033;-73
2022/07/09 09:41:50;;;;;;;3.28;1.65;;;;;;;;;;4994071;28;20091;-74
2022/07/09 09:44:17;;;;;;;5.53;1.77;;;;;;;;;;5014581;28;20042;-74
2022/07/09 09:46:43;;;;;;;4.72;1.60;;;;;;;;;;4997381;28;20060;-74
2022/07/09 09:49:10;;;;;;;3.90;1.65;;;;;;;;;;4981984;28;25493;-75
2022/07/09 09:51:38;;;;;;;2.95;1.52;;;;;;;;;;4998613;28;20033;-76
2022/07/09 09:54:04;;;;;;;2.97;0.90;;;;;;;;;;4989908;28;20034;-75
2022/07/09 09:56:30;;;;;;;3.92;1.50;;;;;;;;;;4982033;28;20034;-76
2022/07/09 09:58:55;;;;;;;4.32;1.60;;;;;;;;;;4999579;28;20034;-76
2022/07/09 10:01:21;;;;;;;4.03;1.70;;;;;;;;;;4981304;28;20858;-77
2022/07/09 10:03:46;;;;;;;6.65;1.88;;;;;;;;;;4981854;28;21691;-77
2022/07/09 10:06:12;;;;;;;3.67;1.83;;;;;;;;;;4998825;28;20045;-77
2022/07/09 10:08:37;;;;;;;5.25;1.77;;;;;;;;;;5003091;28;20521;-77
2022/07/09 10:11:04;;;;;;;4.65;1.40;;;;;;;;;;5017934;28;20062;-77
2022/07/09 10:13:29;;;;;;;4.90;1.60;;;;;;;;;;5019268;28;20030;-78
2022/07/09 10:15:55;;;;;;;3.97;1.60;;;;;;;;;;4987014;28;20036;-77
2022/07/09 10:18:20;;;;;;;4.72;1.58;;;;;;;;;;5002574;28;20467;-77
2022/07/09 10:20:45;;;;;;;4.22;1.83;;;;;;;;;;5000997;28;20085;-78
2022/07/09 10:23:24;;;;;;;7.65;2.15;;;;;;;;;;4987010;28;20034;-79
2022/07/09 10:25:55;;;;;;;3.22;1.70;;;;;;;;;;5003003;28;20045;-78
2022/07/09 10:28:21;;;;;;;4.15;1.50;;;;;;;;;;5015906;28;20036;-78
2022/07/09 10:30:47;;;;;;;3.88;1.65;;;;;;;;;;4985761;28;20030;-78
2022/07/09 10:33:13;;;;;;;4.15;1.27;;;;;;;;;;4970060;28;20084;-77
2022/07/09 10:35:52;;;;;;;2.90;1.13;;;;;;;;;;4987475;28;20401;-77
2022/07/09 10:38:17;;;;;;;1.90;0.88;;;;;;;;;;4991896;28;20080;-77
2022/07/09 10:40:58;;;;;;;4.68;1.00;;;;;;;;;;4986455;28;20486;-77
2022/07/09 10:43:52;;;;;;;2.70;0.90;;;;;;;;;;5013172;28;20049;-78
2022/07/09 10:46:17;;;;;;;3.33;0.90;;;;;;;;;;5001002;28;20034;-77
2022/07/09 10:48:44;;;;;;;9.93;0.90;;;;;;;;;;5003510;28;20447;-77
2022/07/09 10:51:19;;;;;;;2.50;0.88;;;;;;;;;;4968174;28;20068;-75
2022/07/09 10:53:44;;;;;;;2.17;0.80;;;;;;;;;;5001468;28;20152;-76
2022/07/09 10:56:10;;;;;;;13.25;1.52;;;;;;;;;;4999160;28;20117;-76
2022/07/09 10:58:35;;;;;;;3.15;0.93;;;;;;;;;;4987273;28;20057;-77
2022/07/09 11:01:02;;;;;;;8.23;1.00;;;;;;;;;;5000799;28;20490;-76
2022/07/09 11:03:29;;;;;;;3.33;1.17;;;;;;;;;;5002381;28;20049;-76
2022/07/09 11:05:54;;;;;;;4.60;1.38;;;;;;;;;;5000447;28;20083;-76
2022/07/09 11:08:19;;;;;;;4.60;1.20;;;;;;;;;;5001409;28;20562;-76
2022/07/09 11:10:45;;;;;;;3.78;1.23;;;;;;;;;;4988153;28;20112;-76
2022/07/09 11:13:10;;;;;;;6.30;1.40;;;;;;;;;;4985606;28;20077;-76
2022/07/09 11:15:37;;;;;;;5.53;1.40;;;;;;;;;;5002276;28;20060;-76
2022/07/09 11:18:10;;;;;;;4.90;1.20;;;;;;;;;;5014270;28;20057;-75
2022/07/09 11:20:39;;;;;;;3.30;0.95;;;;;;;;;;4998886;28;20050;-76
2022/07/09 11:23:05;;;;;;;4.85;1.17;;;;;;;;;;5002358;28;20161;-75
2022/07/09 11:25:30;;;;;;;3.53;0.98;;;;;;;;;;5000974;28;20494;-75
2022/07/09 11:27:57;;;;;;;5.78;0.90;;;;;;;;;;4973204;28;20513;-75
2022/07/09 11:30:22;;;;;;;4.63;1.02;;;;;;;;;;4999989;28;20465;-75
2022/07/09 11:32:47;;;;;;;4.82;0.90;;;;;;;;;;4966909;28;20022;-75
2022/07/09 11:35:24;;;;;;;7.25;1.65;;;;;;;;;;4999399;28;20033;-75
2022/07/09 11:37:49;;;;;;;4.47;0.85;;;;;;;;;;4983969;28;20033;-76
2022/07/09 11:40:21;;;;;;;3.45;1.00;;;;;;;;;;4998388;28;20065;-76
2022/07/09 11:42:49;;;;;;;6.95;1.30;;;;;;;;;;4999528;28;20022;-75
2022/07/09 11:45:14;;;;;;;3.90;1.08;;;;;;;;;;5012046;28;20579;-75
2022/07/09 11:47:39;;;;;;;3.42;0.82;;;;;;;;;;4998549;28;20101;-75
2022/07/09 11:50:09;;;;;;;9.10;1.50;;;;;;;;;;4996131;28;20509;-75
2022/07/09 11:52:35;;;;;;;7.25;1.65;;;;;;;;;;5007301;28;20540;-75
2022/07/09 11:55:01;;;;;;;6.47;1.38;;;;;;;;;;4982694;28;20133;-75
2022/07/09 11:57:27;;;;;;;5.72;0.98;;;;;;;;;;5015649;28;20041;-75
2022/07/09 11:59:53;;;;;;;5.55;1.02;;;;;;;;;;4996026;28;20054;-75
2022/07/09 12:02:34;;;;;;;5.18;1.58;;;;;;;;;;5015726;28;20200;-75
2022/07/09 12:04:59;;;;;;;3.45;0.90;;;;;;;;;;5013357;28;20045;-75
2022/07/09 12:07:25;;;;;;;7.93;1.27;;;;;;;;;;5016177;28;20379;-75
2022/07/09 12:10:00;;;;;;;3.28;1.10;;;;;;;;;;4999572;28;20030;-75
2022/07/09 12:12:26;;;;;;;4.15;1.02;;;;;;;;;;4998936;28;20553;-75
2022/07/09 12:14:52;;;;;;;5.10;1.02;;;;;;;;;;4999688;28;21388;-75
2022/07/09 12:17:27;;;;;;;2.92;1.10;;;;;;;;;;5014424;28;20417;-75
2022/07/09 12:19:53;;;;;;;6.78;1.40;;;;;;;;;;5010124;28;20363;-75
2022/07/09 12:22:19;;;;;;;5.90;1.50;;;;;;;;;;4999377;28;20072;-75
2022/07/09 12:24:44;;;;;;;4.55;1.30;;;;;;;;;;4996606;28;20046;-75
2022/07/09 12:27:10;;;;;;;7.18;1.58;;;;;;;;;;5010952;28;20045;-76
2022/07/09 12:29:35;;;;;;;6.38;1.40;;;;;;;;;;5015732;28;20034;-73
2022/07/09 12:32:01;;;;;;;7.90;1.55;;;;;;;;;;5005086;28;20490;-78
2022/07/09 12:34:26;;;;;;;9.35;2.10;;;;;;;;;;4968488;28;20105;-77
2022/07/09 12:36:51;;;;;;;6.75;1.30;;;;;;;;;;5013426;28;20116;-77
2022/07/09 12:39:17;;;;;;;6.38;1.67;;;;;;;;;;4995110;28;20071;-78
2022/07/09 12:41:42;;;;;;;14.18;1.67;;;;;;;;;;5020078;28;20585;-77
2022/07/09 12:44:07;;;;;;;7.28;2.05;;;;;;;;;;5020705;28;20188;-77
2022/07/09 12:46:33;;;;;;;18.25;1.70;;;;;;;;;;5003606;28;20121;-77
2022/07/09 12:49:00;;;;;;;8.32;1.92;;;;;;;;;;5020337;28;20038;-77
2022/07/09 12:51:25;;;;;;;5.03;1.55;;;;;;;;;;5010375;28;20041;-77
2022/07/09 12:53:50;;;;;;;6.82;1.70;;;;;;;;;;5015854;28;20022;-77
2022/07/09 12:56:16;;;;;;;7.35;2.28;;;;;;;;;;4984567;28;20117;-77
2022/07/09 12:58:41;;;;;;;8.77;1.75;;;;;;;;;;5001701;28;20073;-77
2022/07/09 13:01:06;;;;;;;8.48;1.45;;;;;;;;;;4995804;28;20500;-77
2022/07/09 13:03:32;;;;;;;10.20;2.40;;;;;;;;;;5000371;28;20080;-77
2022/07/09 13:05:57;;;;;;;12.75;1.88;;;;;;;;;;5001035;28;20477;-77
2022/07/09 13:08:25;;;;;;;8.40;1.95;;;;;;;;;;5004995;28;20057;-77
2022/07/09 13:10:51;;;;;;;7.25;1.92;;;;;;;;;;4938112;28;20057;-77
2022/07/09 13:13:17;;;;;;;7.95;1.50;;;;;;;;;;4998470;28;20150;-77
2022/07/09 13:15:42;;;;;;;6.78;1.52;;;;;;;;;;4999529;28;20022;-77
2022/07/09 13:18:08;;;;;;;6.80;1.92;;;;;;;;;;4997514;28;20037;-76
2022/07/09 13:20:33;;;;;;;11.32;1.77;;;;;;;;;;4983659;28;20111;-77
2022/07/09 13:22:59;;;;;;;4.78;1.42;;;;;;;;;;5013966;28;20022;-77
2022/07/09 13:25:24;;;;;;;5.20;1.35;;;;;;;;;;4999867;28;20137;-77
2022/07/09 13:27:49;;;;;;;5.57;1.23;;;;;;;;;;4984376;28;20458;-77
2022/07/09 13:30:20;;;;;;;5.88;1.70;;;;;;;;;;4996778;28;20109;-77
2022/07/09 13:32:46;;;;;;;7.88;1.55;;;;;;;;;;5000550;28;20026;-77
2022/07/09 13:35:11;;;;;;;7.90;1.60;;;;;;;;;;5014426;28;20136;-77
2022/07/09 13:37:37;;;;;;;6.97;1.40;;;;;;;;;;4970557;28;20397;-77
2022/07/09 13:40:03;;;;;;;5.80;1.33;;;;;;;;;;5000602;28;20084;-77
2022/07/09 13:42:28;;;;;;;9.35;1.35;;;;;;;;;;4997240;28;20382;-77
2022/07/09 13:44:54;;;;;;;5.65;1.30;;;;;;;;;;4998766;28;20042;-77
2022/07/09 13:47:19;;;;;;;5.82;1.30;;;;;;;;;;5000192;28;20122;-77
2022/07/09 13:49:44;;;;;;;8.52;1.85;;;;;;;;;;5004108;28;20172;-77
2022/07/09 13:52:10;;;;;;;4.65;1.15;;;;;;;;;;5019919;28;20073;-77
2022/07/09 13:54:35;;;;;;;3.95;1.13;;;;;;;;;;5001678;28;21810;-77
2022/07/09 13:57:00;;;;;;;3.55;1.10;;;;;;;;;;4986160;28;20066;-76
2022/07/09 13:59:26;;;;;;;3.42;1.02;;;;;;;;;;5002724;28;20056;-77
2022/07/09 14:01:51;;;;;;;8.70;1.13;;;;;;;;;;5009274;28;20619;-77
2022/07/09 14:04:16;;;;;;;11.80;1.85;;;;;;;;;;5016950;28;20128;-77
2022/07/09 14:06:42;;;;;;;4.72;1.40;;;;;;;;;;5002600;28;20177;-77
2022/07/09 14:09:07;;;;;;;6.93;1.52;;;;;;;;;;4984870;28;20038;-77
2022/07/09 14:11:33;;;;;;;2.63;1.13;;;;;;;;;;5002473;28;20064;-77
2022/07/09 14:14:00;;;;;;;8.35;1.27;;;;;;;;;;4983977;28;20209;-77
2022/07/09 14:16:25;;;;;;;7.30;1.30;;;;;;;;;;5003243;28;20490;-77
2022/07/09 14:18:51;;;;;;;6.18;1.10;;;;;;;;;;4981844;28;20034;-73
2022/07/09 14:21:17;;;;;;;2.53;0.95;;;;;;;;;;4993671;28;20069;-77
2022/07/09 14:23:47;;;;;;;7.18;1.00;;;;;;;;;;5004833;28;20180;-74